Time;durP1;ratioP1;P1;durP2;ratioP2;P2;SDS_P1;SDS_P2;PMS_P1;PMS_P2;Temp;Humidity;BMP_temperature;BMP_pressure;BME280_temperature;BME280_humidity;BME280_pressure;Samples;Min_cycle;Max_cycle;Signal;HPM_P1;HPM_P2
2022/10/13 00:01:45;;;;;;;11.63;9.90;;;;;;;;;;5075548;28;20671;-76
2022/10/13 00:04:14;;;;;;;13.30;9.90;;;;;;;;;;5074785;28;20245;-76
2022/10/13 00:06:42;;;;;;;10.37;8.93;;;;;;;;;;5074124;28;20222;-76
2022/10/13 00:09:11;;;;;;;11.47;8.77;;;;;;;;;;5077576;28;20254;-77
2022/10/13 00:11:41;;;;;;;13.40;8.87;;;;;;;;;;5074534;28;20295;-76
2022/10/13 00:14:09;;;;;;;13.33;9.23;;;;;;;;;;5074388;28;20257;-76
2022/10/13 00:16:38;;;;;;;12.20;8.53;;;;;;;;;;5087972;28;20292;-76
2022/10/13 00:19:06;;;;;;;12.10;8.13;;;;;;;;;;5093441;28;20682;-77
2022/10/13 00:21:41;;;;;;;11.17;8.83;;;;;;;;;;5094513;28;20764;-76
2022/10/13 00:24:10;;;;;;;12.50;8.70;;;;;;;;;;5089237;28;20653;-76
2022/10/13 00:26:40;;;;;;;12.43;8.73;;;;;;;;;;5076351;28;20221;-76
2022/10/13 00:29:09;;;;;;;12.43;8.63;;;;;;;;;;5083885;28;20225;-76
2022/10/13 00:31:37;;;;;;;11.90;8.83;;;;;;;;;;5080728;28;20194;-76
2022/10/13 00:34:06;;;;;;;10.93;8.80;;;;;;;;;;5089788;28;20237;-76
2022/10/13 00:36:34;;;;;;;11.40;8.90;;;;;;;;;;5074039;28;20607;-78
2022/10/13 00:39:03;;;;;;;15.37;9.47;;;;;;;;;;5073605;28;20312;-76
2022/10/13 00:41:31;;;;;;;9.70;8.43;;;;;;;;;;5079586;28;20285;-76
2022/10/13 00:44:02;;;;;;;9.20;8.27;;;;;;;;;;5084037;28;20253;-76
2022/10/13 00:46:31;;;;;;;14.60;8.73;;;;;;;;;;5077426;28;20329;-76
2022/10/13 00:49:00;;;;;;;13.23;8.70;;;;;;;;;;5073903;28;20720;-76
2022/10/13 00:51:30;;;;;;;15.20;8.90;;;;;;;;;;5073885;28;20248;-76
2022/10/13 00:53:59;;;;;;;11.73;8.23;;;;;;;;;;5087333;28;20197;-76
2022/10/13 00:56:28;;;;;;;9.37;8.37;;;;;;;;;;5073420;28;20293;-76
2022/10/13 00:58:57;;;;;;;13.43;8.17;;;;;;;;;;5073431;28;20279;-76
2022/10/13 01:01:26;;;;;;;12.50;7.93;;;;;;;;;;5075564;28;20618;-76
2022/10/13 01:03:55;;;;;;;11.67;8.07;;;;;;;;;;5073329;28;20230;-76
2022/10/13 01:06:24;;;;;;;12.20;8.50;;;;;;;;;;5073111;28;20309;-76
2022/10/13 01:08:53;;;;;;;13.83;7.73;;;;;;;;;;5073488;28;20265;-76
2022/10/13 01:11:31;;;;;;;11.57;8.50;;;;;;;;;;5073453;28;20215;-77
2022/10/13 01:14:03;;;;;;;12.53;8.50;;;;;;;;;;5073701;28;20210;-76
2022/10/13 01:16:35;;;;;;;11.53;8.03;;;;;;;;;;5073163;28;20306;-76
2022/10/13 01:19:11;;;;;;;11.13;7.73;;;;;;;;;;5073481;28;20719;-76
2022/10/13 01:21:42;;;;;;;12.17;8.53;;;;;;;;;;5073140;28;20301;-76
2022/10/13 01:24:26;;;;;;;12.83;8.53;;;;;;;;;;5073731;28;20202;-76
2022/10/13 01:27:03;;;;;;;12.37;8.40;;;;;;;;;;5073367;28;20644;-76
2022/10/13 01:29:58;;;;;;;15.37;8.90;;;;;;;;;;5078208;28;20250;-76
2022/10/13 01:32:30;;;;;;;14.00;8.63;;;;;;;;;;5083507;28;20284;-76
2022/10/13 01:35:06;;;;;;;13.60;8.70;;;;;;;;;;5073913;28;20202;-76
2022/10/13 01:37:41;;;;;;;12.63;8.37;;;;;;;;;;5073403;28;20629;-76
2022/10/13 01:40:13;;;;;;;11.77;9.20;;;;;;;;;;5072443;28;20743;-76
2022/10/13 01:42:44;;;;;;;12.83;9.40;;;;;;;;;;5087247;28;20277;-77
2022/10/13 01:45:16;;;;;;;14.33;9.30;;;;;;;;;;5072929;28;20183;-76
2022/10/13 01:47:44;;;;;;;12.53;8.77;;;;;;;;;;5072903;28;20297;-76
2022/10/13 01:50:14;;;;;;;16.23;9.53;;;;;;;;;;5073072;28;20721;-76
2022/10/13 01:52:43;;;;;;;12.90;9.50;;;;;;;;;;5077576;28;20655;-76
2022/10/13 01:55:12;;;;;;;10.43;9.13;;;;;;;;;;5072563;28;20290;-77
2022/10/13 01:57:41;;;;;;;14.47;9.53;;;;;;;;;;5073082;28;20690;-77
2022/10/13 02:00:11;;;;;;;12.97;9.73;;;;;;;;;;5072788;28;20283;-76
2022/10/13 02:02:44;;;;;;;12.97;9.87;;;;;;;;;;5072683;28;20249;-76
2022/10/13 02:05:17;;;;;;;11.60;9.67;;;;;;;;;;5075653;28;20618;-76
2022/10/13 02:07:47;;;;;;;17.47;10.83;;;;;;;;;;5072851;28;20310;-76
2022/10/13 02:10:21;;;;;;;17.53;10.77;;;;;;;;;;5072658;28;20230;-78
2022/10/13 02:12:50;;;;;;;15.63;10.27;;;;;;;;;;5072827;28;20183;-76
2022/10/13 02:15:22;;;;;;;17.03;10.60;;;;;;;;;;5072504;28;20245;-76
2022/10/13 02:17:52;;;;;;;16.27;10.73;;;;;;;;;;5090940;28;20251;-76
2022/10/13 02:20:21;;;;;;;14.13;10.50;;;;;;;;;;5081770;28;20268;-76
2022/10/13 02:22:52;;;;;;;13.13;11.17;;;;;;;;;;5087060;28;20202;-76
2022/10/13 02:25:20;;;;;;;13.97;10.60;;;;;;;;;;5073107;28;20659;-76
2022/10/13 02:27:49;;;;;;;17.70;11.40;;;;;;;;;;5072552;28;20309;-76
2022/10/13 02:30:21;;;;;;;18.20;11.60;;;;;;;;;;5072001;28;20254;-76
2022/10/13 02:32:49;;;;;;;18.37;11.50;;;;;;;;;;5072315;28;20639;-76
2022/10/13 02:35:20;;;;;;;17.73;11.83;;;;;;;;;;5072095;28;20293;-76
2022/10/13 02:37:48;;;;;;;21.33;12.40;;;;;;;;;;5072517;28;20236;-76
2022/10/13 02:40:17;;;;;;;19.33;12.80;;;;;;;;;;5072016;28;20645;-76
2022/10/13 02:42:45;;;;;;;16.93;12.43;;;;;;;;;;5072668;28;20252;-76
2022/10/13 02:45:14;;;;;;;16.33;12.57;;;;;;;;;;5072286;28;20704;-76
2022/10/13 02:47:42;;;;;;;17.23;12.17;;;;;;;;;;5072514;28;20301;-76
2022/10/13 02:50:11;;;;;;;19.87;13.03;;;;;;;;;;5072190;28;20768;-76
2022/10/13 02:52:40;;;;;;;15.33;12.53;;;;;;;;;;5075160;28;20226;-76
2022/10/13 02:55:09;;;;;;;20.50;12.73;;;;;;;;;;5075462;28;20229;-76
2022/10/13 02:57:38;;;;;;;23.73;13.47;;;;;;;;;;5075932;28;20199;-76
2022/10/13 03:00:07;;;;;;;17.80;12.50;;;;;;;;;;5075182;28;20305;-76
2022/10/13 03:02:35;;;;;;;16.13;12.83;;;;;;;;;;5075616;28;20637;-76
2022/10/13 03:05:04;;;;;;;18.23;12.53;;;;;;;;;;5075383;28;20647;-76
2022/10/13 03:07:32;;;;;;;15.60;12.43;;;;;;;;;;5075181;28;20218;-78
2022/10/13 03:10:02;;;;;;;20.50;13.50;;;;;;;;;;5075201;28;20218;-76
2022/10/13 03:12:31;;;;;;;21.17;13.70;;;;;;;;;;5075413;28;20230;-76
2022/10/13 03:14:59;;;;;;;18.83;13.73;;;;;;;;;;5087936;28;20226;-77
2022/10/13 03:17:28;;;;;;;22.17;14.47;;;;;;;;;;5095738;28;20251;-76
2022/10/13 03:19:57;;;;;;;22.70;14.63;;;;;;;;;;5084396;28;20245;-76
2022/10/13 03:22:25;;;;;;;22.57;14.87;;;;;;;;;;5075295;28;20316;-77
2022/10/13 03:24:54;;;;;;;22.97;15.00;;;;;;;;;;5075201;28;20611;-76
2022/10/13 03:27:24;;;;;;;20.80;14.90;;;;;;;;;;5074536;28;20309;-76
2022/10/13 03:29:52;;;;;;;21.10;14.77;;;;;;;;;;5073468;28;20301;-76
2022/10/13 03:32:20;;;;;;;19.57;14.97;;;;;;;;;;5075377;28;20652;-76
2022/10/13 03:34:50;;;;;;;20.93;15.33;;;;;;;;;;5073795;28;20268;-76
2022/10/13 03:37:18;;;;;;;22.27;15.53;;;;;;;;;;5075373;28;20298;-76
2022/10/13 03:39:47;;;;;;;23.30;16.87;;;;;;;;;;5074846;28;20305;-76
2022/10/13 03:42:16;;;;;;;23.63;15.90;;;;;;;;;;5074781;28;20241;-76
2022/10/13 03:44:47;;;;;;;21.90;14.97;;;;;;;;;;5078572;28;20256;-76
2022/10/13 03:47:21;;;;;;;23.37;15.00;;;;;;;;;;5085464;28;20232;-76
2022/10/13 03:49:49;;;;;;;20.83;15.60;;;;;;;;;;5088463;28;20249;-76
2022/10/13 03:52:17;;;;;;;22.27;15.17;;;;;;;;;;5075185;28;20240;-76
2022/10/13 03:54:46;;;;;;;22.87;16.13;;;;;;;;;;5086648;28;20202;-77
2022/10/13 03:57:15;;;;;;;21.70;16.40;;;;;;;;;;5079423;28;20290;-77
2022/10/13 03:59:43;;;;;;;19.93;15.00;;;;;;;;;;5079989;28;20217;-76
2022/10/13 04:02:13;;;;;;;22.87;14.97;;;;;;;;;;5095089;28;20293;-77
2022/10/13 04:04:43;;;;;;;21.97;15.17;;;;;;;;;;5082535;28;20234;-77
2022/10/13 04:07:11;;;;;;;21.23;15.20;;;;;;;;;;5079735;28;20237;-76
2022/10/13 04:09:40;;;;;;;22.77;14.77;;;;;;;;;;5080634;28;20280;-77
2022/10/13 04:12:08;;;;;;;22.73;14.87;;;;;;;;;;5090603;28;20293;-77
2022/10/13 04:14:37;;;;;;;19.10;14.50;;;;;;;;;;5093683;28;20240;-76
2022/10/13 04:17:05;;;;;;;21.57;14.40;;;;;;;;;;5076331;28;20297;-77
2022/10/13 04:19:35;;;;;;;21.47;15.10;;;;;;;;;;5075143;28;20343;-76
2022/10/13 04:22:03;;;;;;;19.87;14.73;;;;;;;;;;5075055;28;20273;-78
2022/10/13 04:24:32;;;;;;;22.73;15.03;;;;;;;;;;5083053;28;20237;-77
2022/10/13 04:27:00;;;;;;;23.33;15.67;;;;;;;;;;5074666;28;20207;-77
2022/10/13 04:29:29;;;;;;;21.30;15.17;;;;;;;;;;5086279;28;20649;-77
2022/10/13 04:31:59;;;;;;;21.67;15.07;;;;;;;;;;5095008;28;20297;-77
2022/10/13 04:34:28;;;;;;;19.97;14.83;;;;;;;;;;5081183;28;20241;-77
2022/10/13 04:36:58;;;;;;;24.37;14.77;;;;;;;;;;5074773;28;20234;-77
2022/10/13 04:39:26;;;;;;;19.90;14.77;;;;;;;;;;5075104;28;20306;-77
2022/10/13 04:41:55;;;;;;;18.00;14.87;;;;;;;;;;5075144;28;20710;-78
2022/10/13 04:44:23;;;;;;;21.23;14.87;;;;;;;;;;5094437;28;20229;-76
2022/10/13 04:46:51;;;;;;;20.67;15.00;;;;;;;;;;5093638;28;20566;-77
2022/10/13 04:49:20;;;;;;;19.37;15.10;;;;;;;;;;5094982;28;20254;-76
2022/10/13 04:51:48;;;;;;;25.07;15.83;;;;;;;;;;5075960;28;20277;-77
2022/10/13 04:54:18;;;;;;;19.53;14.97;;;;;;;;;;5073976;28;20285;-76
2022/10/13 04:56:47;;;;;;;25.00;16.10;;;;;;;;;;5074290;28;20291;-77
2022/10/13 04:59:15;;;;;;;23.03;16.77;;;;;;;;;;5073779;28;20226;-76
2022/10/13 05:01:44;;;;;;;23.17;15.50;;;;;;;;;;5077526;28;20240;-77
2022/10/13 05:04:12;;;;;;;20.87;16.10;;;;;;;;;;5081736;28;20234;-77
2022/10/13 05:06:42;;;;;;;20.33;15.93;;;;;;;;;;5073800;28;20279;-77
2022/10/13 05:09:32;;;;;;;22.43;16.00;;;;;;;;;;5081621;28;20229;-77
2022/10/13 05:12:00;;;;;;;20.90;15.73;;;;;;;;;;5094529;28;20269;-77
2022/10/13 05:14:29;;;;;;;21.77;15.83;;;;;;;;;;5074590;28;20294;-77
2022/10/13 05:16:58;;;;;;;25.13;15.63;;;;;;;;;;5074880;28;20202;-77
2022/10/13 05:19:26;;;;;;;23.07;15.07;;;;;;;;;;5093494;28;20218;-77
2022/10/13 05:21:55;;;;;;;20.97;15.93;;;;;;;;;;5094322;28;20249;-77
2022/10/13 05:24:29;;;;;;;22.57;16.10;;;;;;;;;;5088663;28;20635;-79
2022/10/13 05:26:59;;;;;;;25.00;16.97;;;;;;;;;;5081822;28;20211;-76
2022/10/13 05:29:28;;;;;;;21.87;15.90;;;;;;;;;;5083582;28;20225;-79
2022/10/13 05:31:56;;;;;;;25.37;16.13;;;;;;;;;;5073477;28;20206;-77
2022/10/13 05:34:25;;;;;;;21.57;15.27;;;;;;;;;;5073745;28;20657;-78
2022/10/13 05:36:53;;;;;;;22.83;16.83;;;;;;;;;;5072815;28;20281;-77
2022/10/13 05:39:22;;;;;;;28.47;16.70;;;;;;;;;;5073438;28;20259;-77
2022/10/13 05:41:50;;;;;;;22.87;16.70;;;;;;;;;;5075524;28;20202;-77
2022/10/13 05:44:21;;;;;;;25.33;16.40;;;;;;;;;;5074725;28;20241;-76
2022/10/13 05:46:49;;;;;;;23.80;16.40;;;;;;;;;;5072650;28;20202;-76
2022/10/13 05:49:18;;;;;;;24.80;15.97;;;;;;;;;;5073044;28;20249;-77
2022/10/13 05:51:48;;;;;;;23.40;15.93;;;;;;;;;;5074020;28;20293;-77
2022/10/13 05:54:18;;;;;;;19.83;15.63;;;;;;;;;;5074536;28;20292;-77
2022/10/13 05:56:50;;;;;;;22.10;16.00;;;;;;;;;;5084293;28;20694;-77
2022/10/13 05:59:21;;;;;;;21.63;16.23;;;;;;;;;;5089129;28;20636;-76
2022/10/13 06:01:55;;;;;;;22.53;15.47;;;;;;;;;;5092799;28;20596;-77
2022/10/13 06:04:25;;;;;;;22.27;15.67;;;;;;;;;;5086999;28;20198;-77
2022/10/13 06:06:54;;;;;;;23.13;16.13;;;;;;;;;;5077566;28;20298;-76
2022/10/13 06:09:22;;;;;;;23.90;16.10;;;;;;;;;;5080914;28;20309;-77
2022/10/13 06:11:51;;;;;;;21.40;15.67;;;;;;;;;;5078098;28;20230;-77
2022/10/13 06:14:21;;;;;;;21.83;16.17;;;;;;;;;;5093587;28;20251;-76
2022/10/13 06:16:49;;;;;;;20.07;15.67;;;;;;;;;;5093177;28;20202;-76
2022/10/13 06:19:18;;;;;;;20.87;16.00;;;;;;;;;;5090631;28;20253;-77
2022/10/13 06:21:46;;;;;;;20.73;15.60;;;;;;;;;;5082516;28;20247;-76
2022/10/13 06:24:15;;;;;;;23.80;15.50;;;;;;;;;;5090929;28;20240;-76
2022/10/13 06:26:43;;;;;;;21.63;15.23;;;;;;;;;;5081673;28;20207;-76
2022/10/13 06:29:12;;;;;;;23.20;16.10;;;;;;;;;;5089529;28;20278;-76
2022/10/13 06:31:42;;;;;;;21.77;15.60;;;;;;;;;;5090984;28;20203;-77
2022/10/13 06:34:11;;;;;;;21.43;15.00;;;;;;;;;;5077186;28;20204;-76
2022/10/13 06:36:40;;;;;;;24.93;16.00;;;;;;;;;;5083754;28;20639;-77
2022/10/13 06:39:09;;;;;;;21.93;15.47;;;;;;;;;;5096953;28;20246;-76
2022/10/13 06:41:38;;;;;;;19.50;15.20;;;;;;;;;;5084393;28;20237;-77
2022/10/13 06:44:06;;;;;;;22.23;15.33;;;;;;;;;;5089879;28;20237;-77
2022/10/13 06:46:35;;;;;;;20.73;14.20;;;;;;;;;;5076460;28;20666;-77
2022/10/13 06:49:05;;;;;;;19.30;14.97;;;;;;;;;;5082675;28;20613;-76
2022/10/13 06:51:34;;;;;;;20.13;14.47;;;;;;;;;;5076318;28;20669;-76
2022/10/13 06:54:02;;;;;;;22.87;14.57;;;;;;;;;;5078715;28;20539;-77
2022/10/13 06:56:31;;;;;;;22.33;14.87;;;;;;;;;;5076563;28;20210;-77
2022/10/13 06:58:59;;;;;;;21.70;15.40;;;;;;;;;;5080600;28;20223;-77
2022/10/13 07:01:28;;;;;;;22.00;14.50;;;;;;;;;;5093065;28;20640;-76
2022/10/13 07:03:57;;;;;;;20.93;14.93;;;;;;;;;;5076277;28;20963;-76
2022/10/13 07:06:27;;;;;;;20.07;13.63;;;;;;;;;;5088365;28;20277;-76
2022/10/13 07:08:56;;;;;;;19.97;14.53;;;;;;;;;;5078981;28;20641;-77
2022/10/13 07:11:24;;;;;;;18.50;14.03;;;;;;;;;;5076167;28;20297;-77
2022/10/13 07:13:54;;;;;;;22.80;14.90;;;;;;;;;;5076607;28;20245;-76
2022/10/13 07:16:23;;;;;;;25.27;15.47;;;;;;;;;;5085508;28;20712;-77
2022/10/13 07:18:51;;;;;;;20.03;14.37;;;;;;;;;;5088950;28;20713;-77
2022/10/13 07:21:20;;;;;;;21.83;15.00;;;;;;;;;;5091975;28;20202;-77
2022/10/13 07:23:50;;;;;;;21.40;14.80;;;;;;;;;;5081338;28;20203;-77
2022/10/13 07:26:19;;;;;;;21.07;13.87;;;;;;;;;;5081883;28;20768;-77
2022/10/13 07:28:47;;;;;;;20.33;14.40;;;;;;;;;;5080224;28;20203;-77
2022/10/13 07:31:17;;;;;;;21.33;13.53;;;;;;;;;;5089567;28;20229;-77
2022/10/13 07:33:46;;;;;;;20.47;14.50;;;;;;;;;;5092676;28;20779;-77
2022/10/13 07:36:15;;;;;;;24.10;15.27;;;;;;;;;;5075951;28;20212;-77
2022/10/13 07:38:44;;;;;;;23.30;14.00;;;;;;;;;;5074169;28;20221;-77
2022/10/13 07:41:14;;;;;;;17.57;12.50;;;;;;;;;;5075024;28;20234;-76
2022/10/13 07:43:43;;;;;;;16.97;12.43;;;;;;;;;;5075925;28;20659;-77
2022/10/13 07:46:13;;;;;;;15.90;12.33;;;;;;;;;;5075267;28;20599;-76
2022/10/13 07:48:41;;;;;;;15.73;12.20;;;;;;;;;;5075505;28;20293;-76
2022/10/13 07:51:11;;;;;;;15.97;12.57;;;;;;;;;;5075655;28;20226;-78
2022/10/13 07:53:40;;;;;;;16.67;12.80;;;;;;;;;;5082651;28;20205;-77
2022/10/13 07:56:09;;;;;;;18.23;12.03;;;;;;;;;;5079808;28;20207;-77
2022/10/13 07:58:40;;;;;;;18.00;12.40;;;;;;;;;;5076098;28;20245;-76
2022/10/13 08:01:09;;;;;;;17.50;12.53;;;;;;;;;;5079480;28;20199;-77
2022/10/13 08:03:38;;;;;;;17.70;12.93;;;;;;;;;;5075790;28;20291;-77
2022/10/13 08:06:10;;;;;;;14.07;11.93;;;;;;;;;;5079822;28;20542;-77
2022/10/13 08:08:39;;;;;;;17.17;12.23;;;;;;;;;;5075095;28;20638;-77
2022/10/13 08:11:09;;;;;;;15.73;11.60;;;;;;;;;;5074085;28;20222;-76
2022/10/13 08:13:46;;;;;;;15.40;12.17;;;;;;;;;;5073164;28;20304;-76
2022/10/13 08:16:15;;;;;;;16.00;11.23;;;;;;;;;;5074738;28;20230;-77
2022/10/13 08:18:43;;;;;;;15.43;12.07;;;;;;;;;;5074933;28;20633;-77
2022/10/13 08:21:14;;;;;;;14.00;10.73;;;;;;;;;;5073501;28;20245;-77
2022/10/13 08:24:02;;;;;;;13.40;10.87;;;;;;;;;;5082024;28;20214;-76
2022/10/13 08:26:31;;;;;;;16.73;11.33;;;;;;;;;;5085651;28;20292;-76
2022/10/13 08:29:01;;;;;;;14.33;10.03;;;;;;;;;;5088818;28;20756;-77
2022/10/13 08:31:48;;;;;;;16.33;10.80;;;;;;;;;;5074768;28;20215;-76
2022/10/13 08:34:22;;;;;;;15.53;10.40;;;;;;;;;;5074948;28;20198;-78
2022/10/13 08:36:55;;;;;;;14.37;10.60;;;;;;;;;;5084908;28;20237;-77
2022/10/13 08:39:24;;;;;;;12.60;10.80;;;;;;;;;;5093865;28;20677;-76
2022/10/13 08:41:53;;;;;;;17.03;10.80;;;;;;;;;;5089574;28;20611;-77
2022/10/13 08:44:25;;;;;;;15.80;10.43;;;;;;;;;;5090307;28;20233;-77
2022/10/13 08:47:18;;;;;;;14.70;10.17;;;;;;;;;;5089916;28;20241;-77
2022/10/13 08:49:47;;;;;;;12.70;9.77;;;;;;;;;;5090579;28;20729;-76
2022/10/13 08:52:18;;;;;;;13.30;9.73;;;;;;;;;;5074267;28;20277;-76
2022/10/13 08:54:47;;;;;;;14.60;9.10;;;;;;;;;;5074602;28;20280;-77
2022/10/13 08:57:16;;;;;;;14.43;10.00;;;;;;;;;;5080441;28;20651;-76
2022/10/13 08:59:46;;;;;;;15.40;9.53;;;;;;;;;;5091704;28;20232;-76
2022/10/13 09:02:16;;;;;;;11.50;9.13;;;;;;;;;;5092088;28;20217;-76
2022/10/13 09:04:48;;;;;;;11.87;8.93;;;;;;;;;;5075077;28;20248;-77
2022/10/13 09:07:18;;;;;;;11.37;9.17;;;;;;;;;;5084578;28;20655;-77
2022/10/13 09:09:50;;;;;;;14.50;9.57;;;;;;;;;;5085206;28;20226;-77
2022/10/13 09:12:23;;;;;;;13.53;9.50;;;;;;;;;;5092661;28;20292;-77
2022/10/13 09:15:02;;;;;;;13.93;9.30;;;;;;;;;;5091994;28;20688;-77
2022/10/13 09:17:30;;;;;;;12.53;8.67;;;;;;;;;;5088321;28;20201;-76
2022/10/13 09:20:02;;;;;;;12.93;8.93;;;;;;;;;;5093097;28;20224;-77
2022/10/13 09:22:31;;;;;;;13.93;9.60;;;;;;;;;;5090457;28;20248;-77
2022/10/13 09:25:18;;;;;;;14.40;8.73;;;;;;;;;;5084653;28;20214;-77
2022/10/13 09:27:47;;;;;;;13.50;8.83;;;;;;;;;;5090614;28;20297;-77
2022/10/13 09:30:29;;;;;;;12.07;8.63;;;;;;;;;;5093469;28;20274;-77
2022/10/13 09:33:15;;;;;;;10.57;8.47;;;;;;;;;;5072867;28;20260;-77
2022/10/13 09:35:44;;;;;;;11.77;8.20;;;;;;;;;;5073397;28;20237;-77
2022/10/13 09:38:15;;;;;;;14.67;8.83;;;;;;;;;;5073084;28;20279;-77
2022/10/13 09:40:44;;;;;;;10.00;8.63;;;;;;;;;;5083904;28;20221;-77
2022/10/13 09:43:23;;;;;;;11.20;8.37;;;;;;;;;;5093647;28;20244;-77
2022/10/13 09:45:53;;;;;;;12.40;8.23;;;;;;;;;;5090745;28;20194;-77
2022/10/13 09:48:24;;;;;;;9.63;8.63;;;;;;;;;;5074780;28;20218;-76
2022/10/13 09:50:54;;;;;;;12.93;8.63;;;;;;;;;;5072738;28;20256;-76
2022/10/13 09:53:25;;;;;;;10.97;7.93;;;;;;;;;;5078386;28;20658;-76
2022/10/13 09:56:08;;;;;;;12.00;8.07;;;;;;;;;;5092922;28;20182;-76
2022/10/13 09:58:38;;;;;;;10.73;8.03;;;;;;;;;;5075493;28;20209;-77
2022/10/13 10:01:12;;;;;;;11.83;8.10;;;;;;;;;;5095086;28;20209;-77
2022/10/13 10:03:41;;;;;;;11.23;7.90;;;;;;;;;;5089964;28;20198;-77
2022/10/13 10:06:13;;;;;;;11.63;8.27;;;;;;;;;;5095855;28;20710;-77
2022/10/13 10:08:48;;;;;;;12.30;8.50;;;;;;;;;;5088290;28;20285;-77
2022/10/13 10:11:35;;;;;;;13.17;8.07;;;;;;;;;;5080272;28;20242;-77
2022/10/13 10:14:11;;;;;;;10.75;8.27;;;;;;;;;;5080036;28;20252;-77
2022/10/13 10:16:44;;;;;;;13.83;8.70;;;;;;;;;;5083359;28;20244;-77
2022/10/13 10:19:19;;;;;;;13.80;8.20;;;;;;;;;;5078390;28;20223;-77
2022/10/13 10:21:50;;;;;;;12.10;8.00;;;;;;;;;;5083877;28;20205;-77
2022/10/13 10:24:23;;;;;;;10.55;7.85;;;;;;;;;;5097032;28;20725;-77
2022/10/13 10:26:55;;;;;;;10.80;7.75;;;;;;;;;;5083301;28;20198;-77
2022/10/13 10:29:34;;;;;;;13.07;8.20;;;;;;;;;;5088639;28;20304;-76
2022/10/13 10:32:12;;;;;;;13.02;8.27;;;;;;;;;;5080309;28;20198;-76
2022/10/13 10:34:43;;;;;;;10.87;8.50;;;;;;;;;;5092379;28;20190;-76
2022/10/13 10:37:17;;;;;;;12.13;8.13;;;;;;;;;;5086945;28;20682;-76
2022/10/13 10:39:53;;;;;;;15.93;8.17;;;;;;;;;;5092066;28;20667;-76
2022/10/13 10:42:32;;;;;;;11.83;7.90;;;;;;;;;;5080106;28;20802;-76
2022/10/13 10:45:02;;;;;;;10.77;7.30;;;;;;;;;;5076221;28;20186;-76
2022/10/13 10:47:37;;;;;;;11.17;8.57;;;;;;;;;;5076037;28;20264;-78
2022/10/13 10:50:07;;;;;;;12.87;8.20;;;;;;;;;;5076549;28;20655;-77
2022/10/13 10:52:42;;;;;;;10.40;7.90;;;;;;;;;;5075140;28;20214;-76
2022/10/13 10:55:15;;;;;;;13.13;8.50;;;;;;;;;;5076445;28;20643;-76
2022/10/13 10:57:49;;;;;;;12.33;7.80;;;;;;;;;;5076082;28;20193;-76
2022/10/13 11:00:19;;;;;;;12.32;8.20;;;;;;;;;;5076010;28;20301;-76
2022/10/13 11:02:53;;;;;;;12.52;7.85;;;;;;;;;;5089492;28;20197;-77
2022/10/13 11:05:21;;;;;;;10.50;7.40;;;;;;;;;;5094255;28;20245;-76
2022/10/13 11:08:00;;;;;;;9.77;8.37;;;;;;;;;;5090409;28;20201;-77
2022/10/13 11:10:29;;;;;;;9.88;7.43;;;;;;;;;;5091154;28;20226;-77
2022/10/13 11:13:25;;;;;;;12.20;7.45;;;;;;;;;;5095152;28;20221;-77
2022/10/13 11:15:54;;;;;;;15.85;7.95;;;;;;;;;;5084855;28;20201;-76
2022/10/13 11:18:41;;;;;;;10.93;7.68;;;;;;;;;;5081723;28;20560;-76
2022/10/13 11:21:11;;;;;;;10.27;8.23;;;;;;;;;;5078139;28;20229;-77
2022/10/13 11:23:44;;;;;;;13.10;8.10;;;;;;;;;;5078815;28;20234;-77
2022/10/13 11:26:20;;;;;;;9.48;7.82;;;;;;;;;;5088552;28;20236;-77
2022/10/13 11:28:50;;;;;;;10.75;7.57;;;;;;;;;;5084711;28;20259;-77
2022/10/13 11:31:30;;;;;;;12.25;8.20;;;;;;;;;;5077911;28;20248;-79
2022/10/13 11:34:03;;;;;;;10.70;7.93;;;;;;;;;;5077475;28;20194;-77
2022/10/13 11:36:46;;;;;;;11.17;7.87;;;;;;;;;;5088737;28;20240;-77
2022/10/13 11:39:33;;;;;;;11.52;6.85;;;;;;;;;;5075985;28;20249;-76
2022/10/13 11:42:06;;;;;;;11.30;6.87;;;;;;;;;;5075403;28;20183;-76
2022/10/13 11:44:36;;;;;;;12.27;7.55;;;;;;;;;;5077538;28;20272;-76
2022/10/13 11:47:09;;;;;;;13.13;7.50;;;;;;;;;;5091511;28;20238;-76
2022/10/13 11:49:55;;;;;;;8.70;7.10;;;;;;;;;;5075194;28;20278;-77
2022/10/13 11:52:36;;;;;;;10.03;7.47;;;;;;;;;;5080986;28;20744;-76
2022/10/13 11:55:07;;;;;;;9.87;7.10;;;;;;;;;;5075467;28;20191;-77
2022/10/13 11:57:35;;;;;;;11.60;7.37;;;;;;;;;;5075283;28;20201;-76
2022/10/13 12:00:04;;;;;;;11.17;7.13;;;;;;;;;;5075257;28;20222;-77
2022/10/13 12:02:32;;;;;;;10.97;6.93;;;;;;;;;;5075473;28;20209;-76
2022/10/13 12:05:02;;;;;;;8.83;6.93;;;;;;;;;;5075883;28;20241;-77
2022/10/13 12:07:34;;;;;;;10.52;6.97;;;;;;;;;;5080100;28;20206;-76
2022/10/13 12:10:04;;;;;;;13.60;7.32;;;;;;;;;;5075218;28;20310;-76
2022/10/13 12:12:33;;;;;;;12.40;7.93;;;;;;;;;;5074540;28;20591;-76
2022/10/13 12:15:02;;;;;;;10.10;7.70;;;;;;;;;;5076013;28;20234;-76
2022/10/13 12:17:37;;;;;;;14.23;8.23;;;;;;;;;;5074576;28;20213;-76
2022/10/13 12:20:20;;;;;;;9.10;6.93;;;;;;;;;;5074252;28;20641;-76
2022/10/13 12:22:50;;;;;;;13.57;7.07;;;;;;;;;;5074519;28;20214;-78
2022/10/13 12:25:19;;;;;;;11.47;7.60;;;;;;;;;;5077303;28;20293;-76
2022/10/13 12:27:48;;;;;;;8.48;7.10;;;;;;;;;;5079928;28;20245;-76
2022/10/13 12:30:22;;;;;;;12.97;7.90;;;;;;;;;;5073120;28;20256;-76
2022/10/13 12:32:51;;;;;;;12.93;7.50;;;;;;;;;;5073479;28;20248;-76
2022/10/13 12:35:20;;;;;;;10.57;6.97;;;;;;;;;;5074017;28;20226;-76
2022/10/13 12:37:50;;;;;;;11.70;6.90;;;;;;;;;;5072717;28;20300;-76
2022/10/13 12:40:19;;;;;;;9.50;6.95;;;;;;;;;;5073874;28;20250;-76
2022/10/13 12:42:48;;;;;;;9.53;6.90;;;;;;;;;;5074005;28;20211;-78
2022/10/13 12:45:18;;;;;;;13.97;7.27;;;;;;;;;;5072775;28;20225;-78
2022/10/13 12:47:48;;;;;;;8.87;6.67;;;;;;;;;;5073685;28;20206;-76
2022/10/13 12:50:36;;;;;;;11.20;6.97;;;;;;;;;;5087700;28;20249;-76
2022/10/13 12:53:17;;;;;;;10.47;6.00;;;;;;;;;;5080675;28;20225;-76
2022/10/13 12:55:48;;;;;;;9.67;6.47;;;;;;;;;;5091501;28;20236;-77
2022/10/13 12:58:20;;;;;;;9.37;6.10;;;;;;;;;;5089082;28;20252;-77
2022/10/13 13:00:56;;;;;;;10.20;6.77;;;;;;;;;;5093748;28;20218;-76
2022/10/13 13:03:28;;;;;;;11.03;5.90;;;;;;;;;;5073504;28;20229;-76
2022/10/13 13:06:15;;;;;;;8.23;6.00;;;;;;;;;;5073721;28;20214;-76
2022/10/13 13:08:45;;;;;;;10.20;6.03;;;;;;;;;;5073502;28;20206;-76
2022/10/13 13:11:21;;;;;;;9.43;6.23;;;;;;;;;;5073797;28;20198;-76
2022/10/13 13:13:50;;;;;;;8.30;6.13;;;;;;;;;;5073690;28;20210;-76
2022/10/13 13:16:19;;;;;;;9.27;6.50;;;;;;;;;;5073113;28;20245;-76
2022/10/13 13:18:48;;;;;;;6.93;6.00;;;;;;;;;;5073223;28;20293;-76
2022/10/13 13:21:17;;;;;;;9.10;6.80;;;;;;;;;;5073134;28;20257;-76
2022/10/13 13:23:48;;;;;;;9.95;5.90;;;;;;;;;;5079522;28;20240;-76
2022/10/13 13:26:22;;;;;;;8.20;6.25;;;;;;;;;;5086183;28;20461;-76
2022/10/13 13:28:51;;;;;;;8.60;6.10;;;;;;;;;;5073287;28;20207;-76
2022/10/13 13:31:20;;;;;;;9.35;6.15;;;;;;;;;;5078733;28;20206;-76
2022/10/13 13:33:49;;;;;;;7.80;5.72;;;;;;;;;;5093217;28;20222;-76
2022/10/13 13:36:19;;;;;;;11.80;6.72;;;;;;;;;;5092809;28;20612;-76
2022/10/13 13:38:49;;;;;;;7.95;6.07;;;;;;;;;;5086821;28;20282;-76
2022/10/13 13:41:18;;;;;;;8.50;6.05;;;;;;;;;;5073499;28;20230;-76
2022/10/13 13:43:46;;;;;;;9.95;5.65;;;;;;;;;;5073318;28;20662;-76
2022/10/13 13:46:17;;;;;;;7.72;5.65;;;;;;;;;;5085783;28;20288;-76
2022/10/13 13:48:45;;;;;;;10.43;6.00;;;;;;;;;;5093136;28;20201;-76
2022/10/13 13:51:14;;;;;;;5.63;5.10;;;;;;;;;;5074666;28;20954;-77
2022/10/13 13:53:43;;;;;;;8.65;5.20;;;;;;;;;;5073957;28;20261;-77
2022/10/13 13:56:13;;;;;;;8.57;5.10;;;;;;;;;;5073082;28;20670;-76
2022/10/13 13:58:42;;;;;;;9.52;5.18;;;;;;;;;;5078442;28;20242;-77
2022/10/13 14:01:11;;;;;;;10.25;5.22;;;;;;;;;;5073668;28;20285;-76
2022/10/13 14:03:39;;;;;;;9.30;5.07;;;;;;;;;;5079218;28;20226;-76
2022/10/13 14:06:08;;;;;;;14.50;7.43;;;;;;;;;;5074522;28;20282;-77
2022/10/13 14:08:40;;;;;;;28.05;8.60;;;;;;;;;;5073074;28;20245;-77
2022/10/13 14:11:10;;;;;;;9.80;5.07;;;;;;;;;;5072688;28;20211;-77
2022/10/13 14:13:40;;;;;;;9.68;5.93;;;;;;;;;;5081206;28;20313;-75
2022/10/13 14:16:12;;;;;;;7.47;5.45;;;;;;;;;;5072534;28;20238;-77
2022/10/13 14:18:41;;;;;;;8.88;5.10;;;;;;;;;;5079502;28;20237;-78
2022/10/13 14:21:09;;;;;;;7.53;4.97;;;;;;;;;;5073545;28;20238;-76
2022/10/13 14:23:39;;;;;;;7.47;4.50;;;;;;;;;;5085415;28;20298;-76
2022/10/13 14:26:08;;;;;;;5.38;4.43;;;;;;;;;;5081527;28;21108;-75
2022/10/13 14:28:37;;;;;;;6.88;4.55;;;;;;;;;;5074047;28;20274;-75
2022/10/13 14:31:07;;;;;;;5.50;4.50;;;;;;;;;;5071559;28;20206;-75
2022/10/13 14:33:36;;;;;;;6.03;4.18;;;;;;;;;;5082483;28;20261;-75
2022/10/13 14:36:06;;;;;;;8.10;4.75;;;;;;;;;;5072812;28;20664;-75
2022/10/13 14:38:35;;;;;;;9.20;4.97;;;;;;;;;;5072522;28;20620;-76
2022/10/13 14:41:04;;;;;;;6.20;4.63;;;;;;;;;;5079959;28;20289;-76
2022/10/13 14:43:32;;;;;;;5.70;4.65;;;;;;;;;;5082378;28;20234;-74
2022/10/13 14:46:02;;;;;;;6.75;4.60;;;;;;;;;;5084995;28;20251;-76
2022/10/13 14:48:32;;;;;;;8.25;4.47;;;;;;;;;;5074281;28;20294;-76